sensor_id;sensor_type;location;lat;lon;timestamp;P1;durP1;ratioP1;P2;durP2;ratioP2
69744;SDS011;57015;50.120;-5.168;2023-02-15T00:00:25;22.55;;;9.82;;
69744;SDS011;57015;50.120;-5.168;2023-02-15T00:02:50;19.93;;;9.67;;
69744;SDS011;57015;50.120;-5.168;2023-02-15T00:05:16;20.65;;;9.38;;
69744;SDS011;57015;50.120;-5.168;2023-02-15T00:07:41;17.50;;;9.52;;
69744;SDS011;57015;50.120;-5.168;2023-02-15T00:10:07;18.47;;;8.73;;
69744;SDS011;57015;50.120;-5.168;2023-02-15T00:12:33;19.65;;;8.23;;
69744;SDS011;57015;50.120;-5.168;2023-02-15T00:14:58;19.17;;;8.83;;
69744;SDS011;57015;50.120;-5.168;2023-02-15T00:17:26;18.80;;;8.00;;
69744;SDS011;57015;50.120;-5.168;2023-02-15T00:19:53;16.88;;;8.30;;
69744;SDS011;57015;50.120;-5.168;2023-02-15T00:22:18;18.87;;;8.80;;
69744;SDS011;57015;50.120;-5.168;2023-02-15T00:24:44;17.77;;;8.57;;
69744;SDS011;57015;50.120;-5.168;2023-02-15T00:27:09;16.90;;;8.13;;
69744;SDS011;57015;50.120;-5.168;2023-02-15T00:29:34;19.90;;;9.37;;
69744;SDS011;57015;50.120;-5.168;2023-02-15T00:32:00;18.40;;;8.23;;
69744;SDS011;57015;50.120;-5.168;2023-02-15T00:34:26;18.30;;;8.63;;
69744;SDS011;57015;50.120;-5.168;2023-02-15T00:36:52;20.15;;;8.90;;
69744;SDS011;57015;50.120;-5.168;2023-02-15T00:39:18;20.20;;;9.63;;
69744;SDS011;57015;50.120;-5.168;2023-02-15T00:41:44;18.65;;;8.93;;
69744;SDS011;57015;50.120;-5.168;2023-02-15T00:44:10;16.97;;;7.77;;
69744;SDS011;57015;50.120;-5.168;2023-02-15T00:46:36;19.52;;;8.02;;
69744;SDS011;57015;50.120;-5.168;2023-02-15T00:49:02;17.03;;;8.20;;
69744;SDS011;57015;50.120;-5.168;2023-02-15T00:51:27;18.25;;;8.52;;
69744;SDS011;57015;50.120;-5.168;2023-02-15T00:53:53;17.93;;;8.40;;
69744;SDS011;57015;50.120;-5.168;2023-02-15T00:56:18;18.57;;;8.33;;
69744;SDS011;57015;50.120;-5.168;2023-02-15T00:58:44;17.25;;;8.00;;
69744;SDS011;57015;50.120;-5.168;2023-02-15T01:01:11;21.07;;;8.50;;
69744;SDS011;57015;50.120;-5.168;2023-02-15T01:03:40;16.95;;;8.43;;
69744;SDS011;57015;50.120;-5.168;2023-02-15T01:06:09;17.37;;;8.13;;
69744;SDS011;57015;50.120;-5.168;2023-02-15T01:08:35;18.45;;;8.05;;
69744;SDS011;57015;50.120;-5.168;2023-02-15T01:11:05;16.00;;;8.13;;
69744;SDS011;57015;50.120;-5.168;2023-02-15T01:13:35;16.60;;;7.90;;
69744;SDS011;57015;50.120;-5.168;2023-02-15T01:16:01;19.77;;;7.50;;
69744;SDS011;57015;50.120;-5.168;2023-02-15T01:18:26;19.63;;;8.40;;
69744;SDS011;57015;50.120;-5.168;2023-02-15T01:20:52;19.45;;;8.00;;
69744;SDS011;57015;50.120;-5.168;2023-02-15T01:23:17;21.77;;;8.00;;
69744;SDS011;57015;50.120;-5.168;2023-02-15T01:25:43;17.23;;;7.47;;
69744;SDS011;57015;50.120;-5.168;2023-02-15T01:28:08;13.63;;;6.67;;
69744;SDS011;57015;50.120;-5.168;2023-02-15T01:30:33;22.13;;;7.87;;
69744;SDS011;57015;50.120;-5.168;2023-02-15T01:32:59;22.70;;;7.70;;
69744;SDS011;57015;50.120;-5.168;2023-02-15T01:35:26;19.40;;;6.70;;
69744;SDS011;57015;50.120;-5.168;2023-02-15T01:37:52;18.95;;;7.85;;
69744;SDS011;57015;50.120;-5.168;2023-02-15T01:40:17;17.10;;;7.47;;
69744;SDS011;57015;50.120;-5.168;2023-02-15T01:42:43;20.05;;;7.80;;
69744;SDS011;57015;50.120;-5.168;2023-02-15T01:45:29;17.10;;;7.47;;
69744;SDS011;57015;50.120;-5.168;2023-02-15T01:48:08;18.57;;;8.07;;
69744;SDS011;57015;50.120;-5.168;2023-02-15T01:50:50;21.50;;;7.47;;
69744;SDS011;57015;50.120;-5.168;2023-02-15T01:55:57;20.65;;;7.68;;
69744;SDS011;57015;50.120;-5.168;2023-02-15T01:58:26;16.40;;;6.57;;
69744;SDS011;57015;50.120;-5.168;2023-02-15T02:00:54;16.97;;;7.10;;
69744;SDS011;57015;50.120;-5.168;2023-02-15T02:03:24;23.27;;;7.18;;
69744;SDS011;57015;50.120;-5.168;2023-02-15T02:06:01;26.55;;;7.38;;
69744;SDS011;57015;50.120;-5.168;2023-02-15T02:08:27;21.03;;;7.50;;
69744;SDS011;57015;50.120;-5.168;2023-02-15T02:10:52;22.10;;;8.00;;
69744;SDS011;57015;50.120;-5.168;2023-02-15T02:13:18;19.67;;;7.27;;
69744;SDS011;57015;50.120;-5.168;2023-02-15T02:15:58;20.73;;;7.83;;
69744;SDS011;57015;50.120;-5.168;2023-02-15T02:32:20;21.58;;;7.68;;
69744;SDS011;57015;50.120;-5.168;2023-02-15T02:37:39;17.48;;;8.10;;
69744;SDS011;57015;50.120;-5.168;2023-02-15T02:43:00;19.00;;;7.83;;
69744;SDS011;57015;50.120;-5.168;2023-02-15T02:48:02;20.60;;;7.55;;
69744;SDS011;57015;50.120;-5.168;2023-02-15T02:50:30;19.92;;;7.53;;
69744;SDS011;57015;50.120;-5.168;2023-02-15T02:52:56;23.47;;;8.80;;
69744;SDS011;57015;50.120;-5.168;2023-02-15T03:00:36;24.85;;;7.88;;
69744;SDS011;57015;50.120;-5.168;2023-02-15T03:03:06;19.15;;;7.38;;
69744;SDS011;57015;50.120;-5.168;2023-02-15T03:05:37;16.73;;;7.05;;
69744;SDS011;57015;50.120;-5.168;2023-02-15T03:08:05;17.65;;;7.57;;
69744;SDS011;57015;50.120;-5.168;2023-02-15T03:10:34;19.60;;;6.90;;
69744;SDS011;57015;50.120;-5.168;2023-02-15T03:13:01;20.88;;;7.07;;
69744;SDS011;57015;50.120;-5.168;2023-02-15T03:15:28;16.95;;;6.60;;
69744;SDS011;57015;50.120;-5.168;2023-02-15T03:18:16;22.08;;;8.35;;
69744;SDS011;57015;50.120;-5.168;2023-02-15T03:20:43;26.00;;;8.60;;
69744;SDS011;57015;50.120;-5.168;2023-02-15T03:23:16;25.90;;;8.63;;
69744;SDS011;57015;50.120;-5.168;2023-02-15T03:25:44;26.73;;;8.43;;
69744;SDS011;57015;50.120;-5.168;2023-02-15T03:28:17;24.37;;;8.20;;
69744;SDS011;57015;50.120;-5.168;2023-02-15T03:30:45;20.52;;;7.80;;
69744;SDS011;57015;50.120;-5.168;2023-02-15T03:33:13;21.13;;;7.85;;
69744;SDS011;57015;50.120;-5.168;2023-02-15T03:35:43;23.23;;;7.70;;
69744;SDS011;57015;50.120;-5.168;2023-02-15T03:38:11;18.70;;;7.03;;
69744;SDS011;57015;50.120;-5.168;2023-02-15T03:40:39;18.33;;;6.70;;
69744;SDS011;57015;50.120;-5.168;2023-02-15T03:46:08;22.00;;;7.57;;
69744;SDS011;57015;50.120;-5.168;2023-02-15T03:48:43;23.05;;;7.43;;
69744;SDS011;57015;50.120;-5.168;2023-02-15T03:51:12;19.73;;;7.78;;
69744;SDS011;57015;50.120;-5.168;2023-02-15T03:54:13;17.10;;;7.43;;
69744;SDS011;57015;50.120;-5.168;2023-02-15T03:57:03;19.92;;;6.90;;
69744;SDS011;57015;50.120;-5.168;2023-02-15T03:59:47;22.77;;;7.85;;
69744;SDS011;57015;50.120;-5.168;2023-02-15T04:02:55;27.17;;;7.40;;
69744;SDS011;57015;50.120;-5.168;2023-02-15T04:05:27;18.55;;;6.72;;
69744;SDS011;57015;50.120;-5.168;2023-02-15T04:07:52;19.77;;;7.37;;
69744;SDS011;57015;50.120;-5.168;2023-02-15T04:10:18;17.87;;;7.10;;
69744;SDS011;57015;50.120;-5.168;2023-02-15T04:13:02;19.77;;;7.18;;
69744;SDS011;57015;50.120;-5.168;2023-02-15T04:15:27;20.53;;;7.10;;
69744;SDS011;57015;50.120;-5.168;2023-02-15T04:18:11;22.25;;;7.10;;
69744;SDS011;57015;50.120;-5.168;2023-02-15T04:20:37;17.83;;;7.40;;
69744;SDS011;57015;50.120;-5.168;2023-02-15T04:23:21;19.95;;;6.72;;
69744;SDS011;57015;50.120;-5.168;2023-02-15T04:26:05;16.58;;;6.60;;
69744;SDS011;57015;50.120;-5.168;2023-02-15T04:28:30;20.00;;;6.70;;
69744;SDS011;57015;50.120;-5.168;2023-02-15T04:30:56;19.27;;;6.70;;
69744;SDS011;57015;50.120;-5.168;2023-02-15T04:33:21;17.63;;;6.93;;
69744;SDS011;57015;50.120;-5.168;2023-02-15T04:35:47;20.85;;;7.10;;
69744;SDS011;57015;50.120;-5.168;2023-02-15T04:38:12;19.63;;;6.13;;
69744;SDS011;57015;50.120;-5.168;2023-02-15T04:40:37;15.93;;;6.20;;
69744;SDS011;57015;50.120;-5.168;2023-02-15T04:43:03;15.20;;;5.53;;
69744;SDS011;57015;50.120;-5.168;2023-02-15T04:45:28;15.73;;;5.83;;
69744;SDS011;57015;50.120;-5.168;2023-02-15T04:47:53;12.87;;;6.00;;
69744;SDS011;57015;50.120;-5.168;2023-02-15T04:50:19;13.07;;;5.97;;
69744;SDS011;57015;50.120;-5.168;2023-02-15T04:52:44;15.00;;;6.10;;
69744;SDS011;57015;50.120;-5.168;2023-02-15T04:55:10;15.57;;;5.85;;
69744;SDS011;57015;50.120;-5.168;2023-02-15T04:57:38;11.90;;;5.50;;
69744;SDS011;57015;50.120;-5.168;2023-02-15T05:00:04;13.18;;;6.50;;
69744;SDS011;57015;50.120;-5.168;2023-02-15T05:02:29;12.50;;;4.90;;
69744;SDS011;57015;50.120;-5.168;2023-02-15T05:04:55;12.03;;;5.23;;
69744;SDS011;57015;50.120;-5.168;2023-02-15T05:07:20;14.25;;;5.45;;
69744;SDS011;57015;50.120;-5.168;2023-02-15T05:09:46;16.17;;;5.67;;
69744;SDS011;57015;50.120;-5.168;2023-02-15T05:12:11;12.23;;;4.93;;
69744;SDS011;57015;50.120;-5.168;2023-02-15T05:14:36;12.60;;;4.83;;
69744;SDS011;57015;50.120;-5.168;2023-02-15T05:17:02;17.17;;;5.07;;
69744;SDS011;57015;50.120;-5.168;2023-02-15T05:19:28;17.42;;;5.65;;
69744;SDS011;57015;50.120;-5.168;2023-02-15T05:21:54;13.27;;;5.43;;
69744;SDS011;57015;50.120;-5.168;2023-02-15T05:24:19;11.88;;;5.45;;
69744;SDS011;57015;50.120;-5.168;2023-02-15T05:27:04;16.90;;;5.33;;
69744;SDS011;57015;50.120;-5.168;2023-02-15T05:29:48;16.40;;;5.13;;
69744;SDS011;57015;50.120;-5.168;2023-02-15T05:32:14;15.43;;;5.30;;
69744;SDS011;57015;50.120;-5.168;2023-02-15T05:34:39;11.10;;;5.07;;
69744;SDS011;57015;50.120;-5.168;2023-02-15T05:37:05;13.33;;;4.53;;
69744;SDS011;57015;50.120;-5.168;2023-02-15T05:39:30;12.20;;;4.93;;
69744;SDS011;57015;50.120;-5.168;2023-02-15T05:41:58;14.67;;;4.63;;
69744;SDS011;57015;50.120;-5.168;2023-02-15T05:44:26;12.98;;;4.88;;
69744;SDS011;57015;50.120;-5.168;2023-02-15T05:46:51;16.47;;;4.77;;
69744;SDS011;57015;50.120;-5.168;2023-02-15T05:49:17;12.90;;;5.10;;
69744;SDS011;57015;50.120;-5.168;2023-02-15T05:51:42;13.67;;;4.83;;
69744;SDS011;57015;50.120;-5.168;2023-02-15T05:54:07;13.73;;;5.33;;
69744;SDS011;57015;50.120;-5.168;2023-02-15T05:56:33;14.55;;;4.30;;
69744;SDS011;57015;50.120;-5.168;2023-02-15T05:58:58;10.68;;;4.65;;
69744;SDS011;57015;50.120;-5.168;2023-02-15T06:01:24;10.30;;;4.30;;
69744;SDS011;57015;50.120;-5.168;2023-02-15T06:03:49;11.43;;;4.27;;
69744;SDS011;57015;50.120;-5.168;2023-02-15T06:06:15;13.75;;;4.72;;
69744;SDS011;57015;50.120;-5.168;2023-02-15T06:08:40;18.00;;;4.80;;
69744;SDS011;57015;50.120;-5.168;2023-02-15T06:11:06;14.50;;;5.10;;
69744;SDS011;57015;50.120;-5.168;2023-02-15T06:13:31;13.32;;;4.18;;
69744;SDS011;57015;50.120;-5.168;2023-02-15T06:15:57;16.47;;;4.40;;
69744;SDS011;57015;50.120;-5.168;2023-02-15T06:18:23;13.75;;;4.40;;
69744;SDS011;57015;50.120;-5.168;2023-02-15T06:20:48;16.17;;;4.53;;
69744;SDS011;57015;50.120;-5.168;2023-02-15T06:23:14;20.97;;;4.17;;
69744;SDS011;57015;50.120;-5.168;2023-02-15T06:25:40;10.57;;;3.75;;
69744;SDS011;57015;50.120;-5.168;2023-02-15T06:28:05;11.63;;;3.80;;
69744;SDS011;57015;50.120;-5.168;2023-02-15T06:30:31;10.45;;;4.63;;
69744;SDS011;57015;50.120;-5.168;2023-02-15T06:32:56;12.20;;;4.33;;
69744;SDS011;57015;50.120;-5.168;2023-02-15T06:35:22;11.17;;;3.73;;
69744;SDS011;57015;50.120;-5.168;2023-02-15T06:37:47;13.33;;;4.23;;
69744;SDS011;57015;50.120;-5.168;2023-02-15T06:40:13;13.35;;;4.13;;
69744;SDS011;57015;50.120;-5.168;2023-02-15T06:42:39;12.18;;;3.72;;
69744;SDS011;57015;50.120;-5.168;2023-02-15T06:45:04;17.35;;;4.90;;
69744;SDS011;57015;50.120;-5.168;2023-02-15T06:47:30;20.67;;;4.73;;
69744;SDS011;57015;50.120;-5.168;2023-02-15T06:49:55;14.67;;;4.53;;
69744;SDS011;57015;50.120;-5.168;2023-02-15T06:52:21;12.68;;;4.70;;
69744;SDS011;57015;50.120;-5.168;2023-02-15T06:54:46;12.93;;;5.65;;
69744;SDS011;57015;50.120;-5.168;2023-02-15T06:57:12;14.27;;;4.27;;
69744;SDS011;57015;50.120;-5.168;2023-02-15T06:59:37;17.23;;;5.50;;
69744;SDS011;57015;50.120;-5.168;2023-02-15T07:02:02;21.67;;;5.60;;
69744;SDS011;57015;50.120;-5.168;2023-02-15T07:04:28;19.90;;;5.87;;
69744;SDS011;57015;50.120;-5.168;2023-02-15T07:06:54;19.67;;;6.03;;
69744;SDS011;57015;50.120;-5.168;2023-02-15T07:09:20;20.70;;;5.80;;
69744;SDS011;57015;50.120;-5.168;2023-02-15T07:11:46;22.48;;;5.78;;
69744;SDS011;57015;50.120;-5.168;2023-02-15T07:14:30;18.30;;;5.57;;
69744;SDS011;57015;50.120;-5.168;2023-02-15T07:16:55;19.27;;;6.03;;
69744;SDS011;57015;50.120;-5.168;2023-02-15T07:19:21;19.38;;;5.93;;
69744;SDS011;57015;50.120;-5.168;2023-02-15T07:21:46;17.40;;;5.55;;
69744;SDS011;57015;50.120;-5.168;2023-02-15T07:24:12;20.37;;;5.60;;
69744;SDS011;57015;50.120;-5.168;2023-02-15T07:26:37;15.70;;;5.90;;
69744;SDS011;57015;50.120;-5.168;2023-02-15T07:29:02;19.30;;;5.43;;
69744;SDS011;57015;50.120;-5.168;2023-02-15T07:31:28;21.47;;;6.50;;
69744;SDS011;57015;50.120;-5.168;2023-02-15T07:33:53;16.13;;;6.43;;
69744;SDS011;57015;50.120;-5.168;2023-02-15T07:36:19;24.70;;;6.28;;
69744;SDS011;57015;50.120;-5.168;2023-02-15T07:38:44;19.57;;;5.50;;
69744;SDS011;57015;50.120;-5.168;2023-02-15T07:41:11;16.52;;;5.88;;
69744;SDS011;57015;50.120;-5.168;2023-02-15T07:43:39;22.27;;;7.17;;
69744;SDS011;57015;50.120;-5.168;2023-02-15T07:46:07;21.58;;;6.20;;
69744;SDS011;57015;50.120;-5.168;2023-02-15T07:48:34;19.40;;;5.75;;
69744;SDS011;57015;50.120;-5.168;2023-02-15T07:51:01;18.48;;;6.07;;
69744;SDS011;57015;50.120;-5.168;2023-02-15T07:53:28;22.60;;;7.57;;
69744;SDS011;57015;50.120;-5.168;2023-02-15T07:55:54;20.40;;;6.40;;
69744;SDS011;57015;50.120;-5.168;2023-02-15T07:58:20;23.40;;;5.95;;
69744;SDS011;57015;50.120;-5.168;2023-02-15T08:00:45;22.70;;;5.57;;
69744;SDS011;57015;50.120;-5.168;2023-02-15T08:03:23;23.75;;;6.30;;
69744;SDS011;57015;50.120;-5.168;2023-02-15T08:05:54;19.30;;;5.32;;
69744;SDS011;57015;50.120;-5.168;2023-02-15T08:08:21;18.90;;;6.47;;
69744;SDS011;57015;50.120;-5.168;2023-02-15T08:13:50;17.08;;;5.78;;
69744;SDS011;57015;50.120;-5.168;2023-02-15T08:19:22;26.55;;;7.88;;
69744;SDS011;57015;50.120;-5.168;2023-02-15T08:21:50;27.47;;;8.00;;
69744;SDS011;57015;50.120;-5.168;2023-02-15T08:24:18;24.02;;;7.10;;
69744;SDS011;57015;50.120;-5.168;2023-02-15T08:26:45;22.85;;;7.35;;
69744;SDS011;57015;50.120;-5.168;2023-02-15T08:29:12;20.80;;;6.13;;
69744;SDS011;57015;50.120;-5.168;2023-02-15T08:31:37;24.55;;;7.63;;
69744;SDS011;57015;50.120;-5.168;2023-02-15T08:34:05;24.20;;;6.67;;
69744;SDS011;57015;50.120;-5.168;2023-02-15T08:36:31;23.45;;;7.07;;
69744;SDS011;57015;50.120;-5.168;2023-02-15T08:38:57;19.35;;;6.65;;
69744;SDS011;57015;50.120;-5.168;2023-02-15T08:41:27;21.70;;;6.95;;
69744;SDS011;57015;50.120;-5.168;2023-02-15T08:43:55;26.13;;;6.30;;
69744;SDS011;57015;50.120;-5.168;2023-02-15T08:46:22;24.85;;;6.60;;
69744;SDS011;57015;50.120;-5.168;2023-02-15T08:48:49;24.00;;;7.03;;
69744;SDS011;57015;50.120;-5.168;2023-02-15T08:51:36;22.43;;;6.47;;
69744;SDS011;57015;50.120;-5.168;2023-02-15T08:54:03;20.13;;;6.07;;
69744;SDS011;57015;50.120;-5.168;2023-02-15T08:56:32;25.83;;;7.57;;
69744;SDS011;57015;50.120;-5.168;2023-02-15T08:58:59;19.02;;;6.43;;
69744;SDS011;57015;50.120;-5.168;2023-02-15T09:01:26;28.47;;;8.30;;
69744;SDS011;57015;50.120;-5.168;2023-02-15T09:03:56;20.05;;;6.28;;
69744;SDS011;57015;50.120;-5.168;2023-02-15T09:06:23;17.25;;;5.70;;
69744;SDS011;57015;50.120;-5.168;2023-02-15T09:08:49;29.63;;;6.17;;
69744;SDS011;57015;50.120;-5.168;2023-02-15T09:11:19;17.15;;;5.75;;
69744;SDS011;57015;50.120;-5.168;2023-02-15T09:13:55;20.77;;;5.97;;
69744;SDS011;57015;50.120;-5.168;2023-02-15T09:16:22;14.60;;;5.68;;
69744;SDS011;57015;50.120;-5.168;2023-02-15T09:18:49;20.55;;;6.47;;
69744;SDS011;57015;50.120;-5.168;2023-02-15T09:21:16;20.58;;;5.20;;
69744;SDS011;57015;50.120;-5.168;2023-02-15T09:23:43;16.20;;;5.90;;
69744;SDS011;57015;50.120;-5.168;2023-02-15T09:26:10;21.57;;;6.70;;
69744;SDS011;57015;50.120;-5.168;2023-02-15T09:28:40;19.50;;;5.70;;
69744;SDS011;57015;50.120;-5.168;2023-02-15T09:31:13;24.17;;;5.25;;
69744;SDS011;57015;50.120;-5.168;2023-02-15T09:33:39;23.50;;;6.15;;
69744;SDS011;57015;50.120;-5.168;2023-02-15T09:36:06;16.67;;;4.93;;
69744;SDS011;57015;50.120;-5.168;2023-02-15T09:38:40;21.05;;;5.45;;
69744;SDS011;57015;50.120;-5.168;2023-02-15T10:04:04;17.27;;;4.40;;
69744;SDS011;57015;50.120;-5.168;2023-02-15T10:25:56;19.97;;;4.87;;
69744;SDS011;57015;50.120;-5.168;2023-02-15T10:28:46;23.45;;;6.43;;
69744;SDS011;57015;50.120;-5.168;2023-02-15T10:31:24;17.37;;;5.13;;
69744;SDS011;57015;50.120;-5.168;2023-02-15T10:34:09;18.40;;;4.68;;
69744;SDS011;57015;50.120;-5.168;2023-02-15T10:39:25;18.75;;;4.78;;
69744;SDS011;57015;50.120;-5.168;2023-02-15T10:42:15;25.00;;;4.97;;
69744;SDS011;57015;50.120;-5.168;2023-02-15T10:50:26;15.25;;;5.93;;
69744;SDS011;57015;50.120;-5.168;2023-02-15T11:01:06;14.45;;;4.28;;
69744;SDS011;57015;50.120;-5.168;2023-02-15T11:03:53;16.57;;;4.47;;
69744;SDS011;57015;50.120;-5.168;2023-02-15T11:06:30;15.82;;;4.47;;
69744;SDS011;57015;50.120;-5.168;2023-02-15T11:08:57;20.25;;;4.25;;
69744;SDS011;57015;50.120;-5.168;2023-02-15T11:11:38;15.57;;;3.60;;
69744;SDS011;57015;50.120;-5.168;2023-02-15T11:16:55;17.10;;;3.43;;
69744;SDS011;57015;50.120;-5.168;2023-02-15T11:22:19;14.95;;;3.33;;
69744;SDS011;57015;50.120;-5.168;2023-02-15T11:24:44;13.83;;;3.43;;
69744;SDS011;57015;50.120;-5.168;2023-02-15T11:27:21;9.52;;;1.20;;
69744;SDS011;57015;50.120;-5.168;2023-02-15T11:32:46;3.22;;;0.55;;
69744;SDS011;57015;50.120;-5.168;2023-02-15T11:37:40;2.83;;;0.35;;
69744;SDS011;57015;50.120;-5.168;2023-02-15T11:43:02;1.10;;;0.20;;
69744;SDS011;57015;50.120;-5.168;2023-02-15T11:45:33;1.50;;;0.35;;
69744;SDS011;57015;50.120;-5.168;2023-02-15T11:48:00;2.58;;;0.30;;
69744;SDS011;57015;50.120;-5.168;2023-02-15T11:50:30;2.58;;;0.20;;
69744;SDS011;57015;50.120;-5.168;2023-02-15T11:53:01;1.90;;;0.20;;
69744;SDS011;57015;50.120;-5.168;2023-02-15T11:55:28;1.67;;;0.13;;
69744;SDS011;57015;50.120;-5.168;2023-02-15T11:57:59;1.35;;;0.20;;
69744;SDS011;57015;50.120;-5.168;2023-02-15T12:00:41;2.65;;;0.30;;
69744;SDS011;57015;50.120;-5.168;2023-02-15T12:03:51;1.33;;;0.20;;
69744;SDS011;57015;50.120;-5.168;2023-02-15T12:06:06;0.90;;;0.10;;
69744;SDS011;57015;50.120;-5.168;2023-02-15T12:09:07;1.02;;;0.10;;
69744;SDS011;57015;50.120;-5.168;2023-02-15T12:11:39;2.40;;;0.20;;
69744;SDS011;57015;50.120;-5.168;2023-02-15T12:14:06;1.52;;;0.68;;
69744;SDS011;57015;50.120;-5.168;2023-02-15T12:19:51;2.03;;;0.30;;
69744;SDS011;57015;50.120;-5.168;2023-02-15T12:22:05;2.53;;;0.20;;
69744;SDS011;57015;50.120;-5.168;2023-02-15T12:24:44;1.92;;;0.43;;
69744;SDS011;57015;50.120;-5.168;2023-02-15T12:27:20;1.75;;;0.20;;
69744;SDS011;57015;50.120;-5.168;2023-02-15T12:29:49;1.93;;;0.20;;
69744;SDS011;57015;50.120;-5.168;2023-02-15T12:32:35;1.42;;;0.30;;
69744;SDS011;57015;50.120;-5.168;2023-02-15T12:35:22;3.53;;;0.20;;
69744;SDS011;57015;50.120;-5.168;2023-02-15T12:37:54;1.83;;;0.20;;
69744;SDS011;57015;50.120;-5.168;2023-02-15T12:40:22;3.00;;;0.35;;
69744;SDS011;57015;50.120;-5.168;2023-02-15T12:42:50;1.33;;;0.20;;
69744;SDS011;57015;50.120;-5.168;2023-02-15T12:45:26;2.78;;;0.20;;
69744;SDS011;57015;50.120;-5.168;2023-02-15T12:48:07;1.63;;;0.20;;
69744;SDS011;57015;50.120;-5.168;2023-02-15T12:50:44;2.72;;;0.50;;
69744;SDS011;57015;50.120;-5.168;2023-02-15T12:53:15;1.17;;;0.32;;
69744;SDS011;57015;50.120;-5.168;2023-02-15T12:56:03;1.67;;;0.38;;
69744;SDS011;57015;50.120;-5.168;2023-02-15T12:58:30;1.20;;;0.20;;
69744;SDS011;57015;50.120;-5.168;2023-02-15T13:03:35;2.78;;;0.40;;
69744;SDS011;57015;50.120;-5.168;2023-02-15T13:06:01;3.20;;;0.30;;
69744;SDS011;57015;50.120;-5.168;2023-02-15T13:08:31;2.47;;;0.50;;
69744;SDS011;57015;50.120;-5.168;2023-02-15T13:11:02;1.98;;;0.32;;
69744;SDS011;57015;50.120;-5.168;2023-02-15T13:13:29;4.53;;;0.73;;
69744;SDS011;57015;50.120;-5.168;2023-02-15T13:15:59;1.60;;;0.40;;
69744;SDS011;57015;50.120;-5.168;2023-02-15T13:18:43;1.65;;;0.40;;
69744;SDS011;57015;50.120;-5.168;2023-02-15T13:21:13;4.43;;;0.40;;
69744;SDS011;57015;50.120;-5.168;2023-02-15T13:23:42;3.90;;;0.28;;
69744;SDS011;57015;50.120;-5.168;2023-02-15T13:26:20;1.27;;;0.23;;
69744;SDS011;57015;50.120;-5.168;2023-02-15T13:28:51;0.98;;;0.20;;
69744;SDS011;57015;50.120;-5.168;2023-02-15T13:31:20;2.03;;;0.50;;
69744;SDS011;57015;50.120;-5.168;2023-02-15T13:33:51;1.50;;;0.30;;
69744;SDS011;57015;50.120;-5.168;2023-02-15T13:41:38;2.13;;;0.40;;
69744;SDS011;57015;50.120;-5.168;2023-02-15T13:49:50;3.65;;;1.00;;
69744;SDS011;57015;50.120;-5.168;2023-02-15T13:52:33;2.33;;;0.40;;
69744;SDS011;57015;50.120;-5.168;2023-02-15T14:06:50;2.97;;;0.50;;
69744;SDS011;57015;50.120;-5.168;2023-02-15T14:09:30;4.65;;;0.40;;
69744;SDS011;57015;50.120;-5.168;2023-02-15T14:17:50;3.85;;;0.40;;
69744;SDS011;57015;50.120;-5.168;2023-02-15T14:26:00;4.87;;;0.40;;
69744;SDS011;57015;50.120;-5.168;2023-02-15T14:28:31;3.30;;;0.30;;
69744;SDS011;57015;50.120;-5.168;2023-02-15T14:31:02;2.85;;;0.40;;
69744;SDS011;57015;50.120;-5.168;2023-02-15T14:33:39;4.50;;;0.50;;
69744;SDS011;57015;50.120;-5.168;2023-02-15T14:36:06;4.35;;;0.60;;
69744;SDS011;57015;50.120;-5.168;2023-02-15T14:41:57;5.25;;;0.80;;
69744;SDS011;57015;50.120;-5.168;2023-02-15T14:44:34;4.35;;;0.40;;
69744;SDS011;57015;50.120;-5.168;2023-02-15T14:47:10;4.00;;;0.52;;
69744;SDS011;57015;50.120;-5.168;2023-02-15T14:49:39;3.65;;;0.80;;
69744;SDS011;57015;50.120;-5.168;2023-02-15T15:02:17;3.60;;;0.50;;
69744;SDS011;57015;50.120;-5.168;2023-02-15T15:07:24;2.40;;;0.45;;
69744;SDS011;57015;50.120;-5.168;2023-02-15T15:12:43;4.37;;;0.40;;
69744;SDS011;57015;50.120;-5.168;2023-02-15T15:15:13;6.70;;;0.68;;
69744;SDS011;57015;50.120;-5.168;2023-02-15T15:18:05;3.08;;;0.55;;
69744;SDS011;57015;50.120;-5.168;2023-02-15T15:25:56;4.70;;;0.40;;
69744;SDS011;57015;50.120;-5.168;2023-02-15T15:31:00;4.38;;;0.45;;
69744;SDS011;57015;50.120;-5.168;2023-02-15T15:33:37;6.40;;;0.50;;
69744;SDS011;57015;50.120;-5.168;2023-02-15T15:41:42;3.83;;;0.90;;
69744;SDS011;57015;50.120;-5.168;2023-02-15T15:49:45;4.35;;;0.75;;
69744;SDS011;57015;50.120;-5.168;2023-02-15T15:52:15;3.03;;;0.43;;
69744;SDS011;57015;50.120;-5.168;2023-02-15T15:54:43;6.72;;;0.90;;
69744;SDS011;57015;50.120;-5.168;2023-02-15T15:57:26;5.57;;;0.80;;
69744;SDS011;57015;50.120;-5.168;2023-02-15T15:59:54;4.90;;;0.70;;
69744;SDS011;57015;50.120;-5.168;2023-02-15T16:02:19;5.43;;;0.70;;
69744;SDS011;57015;50.120;-5.168;2023-02-15T16:04:45;5.30;;;0.70;;
69744;SDS011;57015;50.120;-5.168;2023-02-15T16:09:41;2.57;;;0.60;;
69744;SDS011;57015;50.120;-5.168;2023-02-15T16:12:13;3.33;;;0.80;;
69744;SDS011;57015;50.120;-5.168;2023-02-15T16:14:40;3.78;;;0.80;;
69744;SDS011;57015;50.120;-5.168;2023-02-15T16:17:07;5.57;;;0.70;;
69744;SDS011;57015;50.120;-5.168;2023-02-15T16:19:39;2.70;;;0.57;;
69744;SDS011;57015;50.120;-5.168;2023-02-15T16:22:09;4.55;;;0.60;;
69744;SDS011;57015;50.120;-5.168;2023-02-15T16:24:42;4.53;;;0.50;;
69744;SDS011;57015;50.120;-5.168;2023-02-15T16:27:34;7.05;;;0.45;;
69744;SDS011;57015;50.120;-5.168;2023-02-15T16:32:53;3.60;;;0.40;;
69744;SDS011;57015;50.120;-5.168;2023-02-15T16:35:20;5.15;;;0.63;;
69744;SDS011;57015;50.120;-5.168;2023-02-15T16:37:47;3.75;;;0.35;;
69744;SDS011;57015;50.120;-5.168;2023-02-15T16:42:50;5.20;;;0.50;;
69744;SDS011;57015;50.120;-5.168;2023-02-15T16:45:17;2.97;;;0.33;;
69744;SDS011;57015;50.120;-5.168;2023-02-15T16:47:45;3.85;;;0.63;;
69744;SDS011;57015;50.120;-5.168;2023-02-15T16:52:45;5.10;;;0.50;;
69744;SDS011;57015;50.120;-5.168;2023-02-15T16:55:19;4.20;;;0.40;;
69744;SDS011;57015;50.120;-5.168;2023-02-15T16:57:48;4.68;;;0.40;;
69744;SDS011;57015;50.120;-5.168;2023-02-15T17:00:24;4.80;;;0.50;;
69744;SDS011;57015;50.120;-5.168;2023-02-15T17:02:58;2.95;;;0.52;;
69744;SDS011;57015;50.120;-5.168;2023-02-15T17:05:30;2.75;;;0.50;;
69744;SDS011;57015;50.120;-5.168;2023-02-15T17:10:29;3.28;;;0.60;;
69744;SDS011;57015;50.120;-5.168;2023-02-15T17:12:56;5.30;;;1.47;;
69744;SDS011;57015;50.120;-5.168;2023-02-15T17:15:26;2.65;;;0.60;;
69744;SDS011;57015;50.120;-5.168;2023-02-15T17:17:52;4.20;;;0.95;;
69744;SDS011;57015;50.120;-5.168;2023-02-15T17:20:20;5.93;;;1.00;;
69744;SDS011;57015;50.120;-5.168;2023-02-15T17:22:46;7.37;;;1.10;;
69744;SDS011;57015;50.120;-5.168;2023-02-15T17:25:18;4.82;;;1.00;;
69744;SDS011;57015;50.120;-5.168;2023-02-15T17:27:49;5.10;;;1.25;;
69744;SDS011;57015;50.120;-5.168;2023-02-15T17:30:37;5.93;;;1.23;;
69744;SDS011;57015;50.120;-5.168;2023-02-15T17:33:03;6.18;;;0.93;;
69744;SDS011;57015;50.120;-5.168;2023-02-15T17:35:30;4.97;;;1.13;;
69744;SDS011;57015;50.120;-5.168;2023-02-15T17:38:00;4.77;;;1.60;;
69744;SDS011;57015;50.120;-5.168;2023-02-15T17:40:30;6.03;;;0.90;;
69744;SDS011;57015;50.120;-5.168;2023-02-15T17:42:59;6.00;;;1.77;;
69744;SDS011;57015;50.120;-5.168;2023-02-15T17:45:26;7.25;;;1.40;;
69744;SDS011;57015;50.120;-5.168;2023-02-15T17:47:57;3.70;;;1.67;;
69744;SDS011;57015;50.120;-5.168;2023-02-15T17:50:24;6.50;;;1.53;;
69744;SDS011;57015;50.120;-5.168;2023-02-15T17:52:51;4.55;;;1.48;;
69744;SDS011;57015;50.120;-5.168;2023-02-15T17:55:18;4.50;;;1.52;;
69744;SDS011;57015;50.120;-5.168;2023-02-15T17:58:13;9.35;;;1.60;;
69744;SDS011;57015;50.120;-5.168;2023-02-15T18:00:41;11.73;;;3.08;;
69744;SDS011;57015;50.120;-5.168;2023-02-15T18:03:29;6.37;;;2.23;;